Port Acres, Texas
Current Conditions -  °F | °C
As of 4:53 PM on Thursday 27 Nov 2014 (Local Time) from KBPT Reporting Station
Clear Clear  
Wind Chill: 61°   Ceiling: Unl
Heat Index: 61°   Visibility: 10mi
Dew Point: 36°   Wind: 6mph
Humidity: 39%   Direction: 10°N
Pressure: 30.41"   Gusts: NA
Location:  29.7569°N, 94.1898°W
Report Text: KBPT 272253Z 01005KT 10SM CLR 16/02 A3041 RMK AO2 SLP298 T01610022
Loading
Personal Weather Stations






























Interactive Weather Map New forecast layout! Learn more

10-Day Weather Forecast

Advertisements
Track Severe Weather on mobile